Augusta, Georgia
Current Conditions -  °F | °C
As of 8:53 AM on Thursday 30 Oct 2014 (Local Time) from KDNL Reporting Station
Clear Clear  
Wind Chill: 56°   Ceiling: Unl
Heat Index: 56°   Visibility: 10mi
Dew Point: 46°   Wind: 9mph
Humidity: 69%   Direction: 350°N
Pressure: 30.04"   Gusts: NA
Location:  33.48°N, 81.97°W
Report Text: KDNL 301253Z AUTO 35008KT 10SM CLR 13/08 A3004 RMK AO2 SLP170 T01330078
Loading
Personal Weather Stations






























Interactive Weather Map
Tropical Storm Tracking
New forecast layout! Learn more

10-Day Weather Forecast

Advertisements
Track Severe Weather on mobile